TimeCDT,TemperatureF,Dew PointF,Humidity,Sea Level PressureIn,VisibilityMPH,Wind Direction,Wind SpeedMPH,Gust SpeedMPH,PrecipitationIn,Events,Conditions,WindDirDegrees,DateUTC
12:53 AM,66.0,61.0,84,30.15,10.0,Calm,Calm,-,N/A,,Mostly Cloudy,0,2012-09-27 05:53:00
1:53 AM,66.9,62.1,84,30.15,10.0,Calm,Calm,-,N/A,,Mostly Cloudy,0,2012-09-27 06:53:00
2:53 AM,68.0,61.0,78,30.14,10.0,Calm,Calm,-,N/A,,Mostly Cloudy,0,2012-09-27 07:53:00
3:53 AM,66.0,62.1,87,30.15,10.0,Calm,Calm,-,N/A,,Partly Cloudy,0,2012-09-27 08:53:00
4:53 AM,66.0,62.1,87,30.16,10.0,NNW,3.5,-,N/A,,Partly Cloudy,330,2012-09-27 09:53:00
5:53 AM,64.0,62.1,93,30.18,10.0,Calm,Calm,-,N/A,,Partly Cloudy,0,2012-09-27 10:53:00
6:53 AM,64.9,62.1,90,30.19,10.0,Calm,Calm,-,N/A,,Partly Cloudy,0,2012-09-27 11:53:00
7:53 AM,70.0,64.0,81,30.21,10.0,Calm,Calm,-,N/A,,Partly Cloudy,0,2012-09-27 12:53:00
8:53 AM,75.0,66.0,73,30.21,10.0,Calm,Calm,-,N/A,,Partly Cloudy,0,2012-09-27 13:53:00
9:53 AM,80.1,66.9,64,30.20,10.0,South,5.8,-,N/A,,Clear,190,2012-09-27 14:53:00
10:53 AM,81.0,64.9,58,30.20,10.0,WSW,4.6,-,N/A,,Partly Cloudy,250,2012-09-27 15:53:00
11:53 AM,84.0,63.0,49,30.18,10.0,Calm,Calm,-,N/A,,Partly Cloudy,0,2012-09-27 16:53:00
12:53 PM,84.9,63.0,48,30.16,10.0,SSW,5.8,-,N/A,,Scattered Clouds,210,2012-09-27 17:53:00
1:53 PM,86.0,63.0,46,30.13,10.0,Variable,3.5,-,N/A,,Scattered Clouds,0,2012-09-27 18:53:00
2:53 PM,87.1,63.0,44,30.12,10.0,Variable,4.6,-,N/A,,Scattered Clouds,0,2012-09-27 19:53:00
3:53 PM,84.9,62.1,46,30.11,10.0,ESE,3.5,-,N/A,,Scattered Clouds,110,2012-09-27 20:53:00
4:53 PM,82.9,63.0,51,30.09,10.0,East,3.5,-,N/A,,Scattered Clouds,90,2012-09-27 21:53:00
5:53 PM,82.0,64.9,56,30.09,10.0,East,3.5,-,N/A,,Scattered Clouds,80,2012-09-27 22:53:00
6:53 PM,77.0,66.9,71,30.09,10.0,Calm,Calm,-,N/A,,Scattered Clouds,0,2012-09-27 23:53:00
7:53 PM,73.9,66.9,79,30.11,10.0,Calm,Calm,-,N/A,,Clear,0,2012-09-28 00:53:00
8:53 PM,70.0,66.0,87,30.13,10.0,Calm,Calm,-,N/A,,Clear,0,2012-09-28 01:53:00
9:53 PM,69.1,66.0,90,30.12,10.0,Calm,Calm,-,N/A,,Clear,0,2012-09-28 02:53:00
10:53 PM,68.0,64.9,90,30.12,10.0,Calm,Calm,-,N/A,,Clear,0,2012-09-28 03:53:00
11:53 PM,66.9,64.9,93,30.13,10.0,Calm,Calm,-,N/A,,Clear,0,2012-09-28 04:53:00